sensor_id;sensor_type;location;lat;lon;timestamp;P1;durP1;ratioP1;P2;durP2;ratioP2
67965;SDS011;54749;47.850;9.002;2023-04-24T00:01:30;5.25;;;1.30;;
67965;SDS011;54749;47.850;9.002;2023-04-24T00:03:58;4.35;;;1.00;;
67965;SDS011;54749;47.850;9.002;2023-04-24T00:06:26;3.38;;;1.00;;
67965;SDS011;54749;47.850;9.002;2023-04-24T00:09:00;3.10;;;1.00;;
67965;SDS011;54749;47.850;9.002;2023-04-24T00:11:27;4.83;;;1.10;;
67965;SDS011;54749;47.850;9.002;2023-04-24T00:13:55;4.93;;;1.38;;
67965;SDS011;54749;47.850;9.002;2023-04-24T00:16:23;4.93;;;1.30;;
67965;SDS011;54749;47.850;9.002;2023-04-24T00:18:50;3.70;;;1.30;;
67965;SDS011;54749;47.850;9.002;2023-04-24T00:21:19;4.88;;;1.67;;
67965;SDS011;54749;47.850;9.002;2023-04-24T00:23:47;8.87;;;4.63;;
67965;SDS011;54749;47.850;9.002;2023-04-24T00:26:14;10.23;;;4.93;;
67965;SDS011;54749;47.850;9.002;2023-04-24T00:28:41;9.40;;;4.07;;
67965;SDS011;54749;47.850;9.002;2023-04-24T00:31:08;8.07;;;3.17;;
67965;SDS011;54749;47.850;9.002;2023-04-24T00:33:36;7.15;;;2.75;;
67965;SDS011;54749;47.850;9.002;2023-04-24T00:36:03;5.87;;;1.70;;
67965;SDS011;54749;47.850;9.002;2023-04-24T00:38:30;4.05;;;1.40;;
67965;SDS011;54749;47.850;9.002;2023-04-24T00:40:57;3.95;;;1.13;;
67965;SDS011;54749;47.850;9.002;2023-04-24T00:43:24;3.75;;;1.20;;
67965;SDS011;54749;47.850;9.002;2023-04-24T00:45:52;3.22;;;1.20;;
67965;SDS011;54749;47.850;9.002;2023-04-24T00:48:20;4.93;;;1.50;;
67965;SDS011;54749;47.850;9.002;2023-04-24T00:50:47;10.35;;;4.45;;
67965;SDS011;54749;47.850;9.002;2023-04-24T00:53:14;5.85;;;2.60;;
67965;SDS011;54749;47.850;9.002;2023-04-24T00:55:41;4.38;;;1.75;;
67965;SDS011;54749;47.850;9.002;2023-04-24T00:58:09;5.53;;;2.00;;
67965;SDS011;54749;47.850;9.002;2023-04-24T01:00:36;4.30;;;1.60;;
67965;SDS011;54749;47.850;9.002;2023-04-24T01:03:04;3.88;;;1.10;;
67965;SDS011;54749;47.850;9.002;2023-04-24T01:05:32;4.53;;;1.00;;
67965;SDS011;54749;47.850;9.002;2023-04-24T01:08:00;3.30;;;1.20;;
67965;SDS011;54749;47.850;9.002;2023-04-24T01:10:29;3.80;;;1.00;;
67965;SDS011;54749;47.850;9.002;2023-04-24T01:12:59;3.57;;;0.90;;
67965;SDS011;54749;47.850;9.002;2023-04-24T01:15:26;2.90;;;1.00;;
67965;SDS011;54749;47.850;9.002;2023-04-24T01:17:54;3.40;;;1.20;;
67965;SDS011;54749;47.850;9.002;2023-04-24T01:20:21;3.60;;;1.33;;
67965;SDS011;54749;47.850;9.002;2023-04-24T01:22:48;3.72;;;1.13;;
67965;SDS011;54749;47.850;9.002;2023-04-24T01:25:16;3.73;;;1.17;;
67965;SDS011;54749;47.850;9.002;2023-04-24T01:27:43;5.18;;;1.60;;
67965;SDS011;54749;47.850;9.002;2023-04-24T01:30:11;7.72;;;3.05;;
67965;SDS011;54749;47.850;9.002;2023-04-24T01:32:39;8.38;;;2.50;;
67965;SDS011;54749;47.850;9.002;2023-04-24T01:35:07;8.18;;;3.00;;
67965;SDS011;54749;47.850;9.002;2023-04-24T01:37:35;5.87;;;2.30;;
67965;SDS011;54749;47.850;9.002;2023-04-24T01:40:04;4.28;;;1.67;;
67965;SDS011;54749;47.850;9.002;2023-04-24T01:42:34;4.95;;;1.65;;
67965;SDS011;54749;47.850;9.002;2023-04-24T01:45:02;4.07;;;1.67;;
67965;SDS011;54749;47.850;9.002;2023-04-24T01:47:30;5.18;;;1.98;;
67965;SDS011;54749;47.850;9.002;2023-04-24T01:49:57;4.13;;;1.70;;
67965;SDS011;54749;47.850;9.002;2023-04-24T01:52:25;5.00;;;1.80;;
67965;SDS011;54749;47.850;9.002;2023-04-24T01:54:53;4.78;;;1.75;;
67965;SDS011;54749;47.850;9.002;2023-04-24T01:57:22;3.60;;;1.33;;
67965;SDS011;54749;47.850;9.002;2023-04-24T01:59:50;4.28;;;1.50;;
67965;SDS011;54749;47.850;9.002;2023-04-24T02:02:17;4.17;;;1.50;;
67965;SDS011;54749;47.850;9.002;2023-04-24T02:04:45;4.00;;;1.30;;
67965;SDS011;54749;47.850;9.002;2023-04-24T02:07:12;3.85;;;1.40;;
67965;SDS011;54749;47.850;9.002;2023-04-24T02:09:39;3.72;;;1.20;;
67965;SDS011;54749;47.850;9.002;2023-04-24T02:12:07;5.25;;;1.90;;
67965;SDS011;54749;47.850;9.002;2023-04-24T02:14:34;10.30;;;5.27;;
67965;SDS011;54749;47.850;9.002;2023-04-24T02:17:02;11.85;;;5.00;;
67965;SDS011;54749;47.850;9.002;2023-04-24T02:19:30;18.73;;;9.30;;
67965;SDS011;54749;47.850;9.002;2023-04-24T02:21:57;9.45;;;4.15;;
67965;SDS011;54749;47.850;9.002;2023-04-24T02:24:24;6.05;;;2.50;;
67965;SDS011;54749;47.850;9.002;2023-04-24T02:26:51;13.60;;;7.00;;
67965;SDS011;54749;47.850;9.002;2023-04-24T02:29:19;6.50;;;3.10;;
67965;SDS011;54749;47.850;9.002;2023-04-24T02:31:49;6.78;;;3.13;;
67965;SDS011;54749;47.850;9.002;2023-04-24T02:34:16;12.75;;;6.13;;
67965;SDS011;54749;47.850;9.002;2023-04-24T02:36:43;9.57;;;4.60;;
67965;SDS011;54749;47.850;9.002;2023-04-24T02:39:10;7.20;;;3.40;;
67965;SDS011;54749;47.850;9.002;2023-04-24T02:41:39;24.27;;;12.15;;
67965;SDS011;54749;47.850;9.002;2023-04-24T02:44:06;26.65;;;14.10;;
67965;SDS011;54749;47.850;9.002;2023-04-24T02:46:33;42.15;;;24.02;;
67965;SDS011;54749;47.850;9.002;2023-04-24T02:49:00;65.38;;;38.67;;
67965;SDS011;54749;47.850;9.002;2023-04-24T02:51:27;22.97;;;14.10;;
67965;SDS011;54749;47.850;9.002;2023-04-24T02:53:55;36.40;;;24.02;;
67965;SDS011;54749;47.850;9.002;2023-04-24T02:56:22;15.52;;;8.98;;
67965;SDS011;54749;47.850;9.002;2023-04-24T02:58:49;9.10;;;4.32;;
67965;SDS011;54749;47.850;9.002;2023-04-24T03:01:16;40.83;;;23.60;;
67965;SDS011;54749;47.850;9.002;2023-04-24T03:03:44;33.03;;;17.37;;
67965;SDS011;54749;47.850;9.002;2023-04-24T03:06:12;18.95;;;11.68;;
67965;SDS011;54749;47.850;9.002;2023-04-24T03:08:39;20.55;;;11.95;;
67965;SDS011;54749;47.850;9.002;2023-04-24T03:11:06;44.25;;;28.10;;
67965;SDS011;54749;47.850;9.002;2023-04-24T03:13:34;42.28;;;26.73;;
67965;SDS011;54749;47.850;9.002;2023-04-24T03:16:01;89.83;;;53.53;;
67965;SDS011;54749;47.850;9.002;2023-04-24T03:18:28;67.90;;;42.35;;
67965;SDS011;54749;47.850;9.002;2023-04-24T03:20:56;63.88;;;41.58;;
67965;SDS011;54749;47.850;9.002;2023-04-24T03:23:24;51.15;;;33.28;;
67965;SDS011;54749;47.850;9.002;2023-04-24T03:25:51;25.00;;;15.93;;
67965;SDS011;54749;47.850;9.002;2023-04-24T03:28:19;14.53;;;8.43;;
67965;SDS011;54749;47.850;9.002;2023-04-24T03:30:56;14.63;;;7.50;;
67965;SDS011;54749;47.850;9.002;2023-04-24T03:33:25;25.73;;;15.80;;
67965;SDS011;54749;47.850;9.002;2023-04-24T03:36:00;27.05;;;16.83;;
67965;SDS011;54749;47.850;9.002;2023-04-24T03:38:35;25.85;;;13.13;;
67965;SDS011;54749;47.850;9.002;2023-04-24T03:41:22;22.63;;;12.30;;
67965;SDS011;54749;47.850;9.002;2023-04-24T03:43:54;22.20;;;10.65;;
67965;SDS011;54749;47.850;9.002;2023-04-24T03:46:22;12.68;;;6.57;;
67965;SDS011;54749;47.850;9.002;2023-04-24T03:49:00;20.50;;;12.13;;
67965;SDS011;54749;47.850;9.002;2023-04-24T03:51:31;25.55;;;14.63;;
67965;SDS011;54749;47.850;9.002;2023-04-24T03:54:08;19.77;;;9.60;;
67965;SDS011;54749;47.850;9.002;2023-04-24T03:56:38;13.00;;;6.80;;
67965;SDS011;54749;47.850;9.002;2023-04-24T03:59:06;22.02;;;12.10;;
67965;SDS011;54749;47.850;9.002;2023-04-24T04:01:34;11.93;;;6.50;;
67965;SDS011;54749;47.850;9.002;2023-04-24T04:04:15;36.00;;;21.85;;
67965;SDS011;54749;47.850;9.002;2023-04-24T04:06:44;19.63;;;11.57;;
67965;SDS011;54749;47.850;9.002;2023-04-24T04:09:11;6.35;;;2.95;;
67965;SDS011;54749;47.850;9.002;2023-04-24T04:11:39;4.65;;;2.08;;
67965;SDS011;54749;47.850;9.002;2023-04-24T04:14:06;17.65;;;10.40;;
67965;SDS011;54749;47.850;9.002;2023-04-24T04:16:35;23.77;;;14.10;;
67965;SDS011;54749;47.850;9.002;2023-04-24T04:19:04;19.60;;;12.37;;
67965;SDS011;54749;47.850;9.002;2023-04-24T04:21:32;15.93;;;9.70;;
67965;SDS011;54749;47.850;9.002;2023-04-24T04:24:11;16.17;;;10.38;;
67965;SDS011;54749;47.850;9.002;2023-04-24T04:26:43;28.90;;;17.58;;
67965;SDS011;54749;47.850;9.002;2023-04-24T04:29:24;44.95;;;26.05;;
67965;SDS011;54749;47.850;9.002;2023-04-24T04:31:53;23.97;;;13.27;;
67965;SDS011;54749;47.850;9.002;2023-04-24T04:34:21;14.82;;;8.70;;
67965;SDS011;54749;47.850;9.002;2023-04-24T04:36:50;23.35;;;14.50;;
67965;SDS011;54749;47.850;9.002;2023-04-24T04:39:27;12.32;;;7.15;;
67965;SDS011;54749;47.850;9.002;2023-04-24T04:42:00;16.50;;;10.43;;
67965;SDS011;54749;47.850;9.002;2023-04-24T04:44:37;18.40;;;11.03;;
67965;SDS011;54749;47.850;9.002;2023-04-24T04:47:07;7.15;;;3.75;;
67965;SDS011;54749;47.850;9.002;2023-04-24T04:49:37;13.80;;;6.32;;
67965;SDS011;54749;47.850;9.002;2023-04-24T04:52:11;11.38;;;4.70;;
67965;SDS011;54749;47.850;9.002;2023-04-24T04:54:38;16.52;;;7.30;;
67965;SDS011;54749;47.850;9.002;2023-04-24T04:57:06;15.57;;;7.70;;
67965;SDS011;54749;47.850;9.002;2023-04-24T04:59:34;17.80;;;6.05;;
67965;SDS011;54749;47.850;9.002;2023-04-24T05:02:05;14.57;;;4.97;;
67965;SDS011;54749;47.850;9.002;2023-04-24T05:04:33;22.50;;;11.80;;
67965;SDS011;54749;47.850;9.002;2023-04-24T05:07:01;19.08;;;10.25;;
67965;SDS011;54749;47.850;9.002;2023-04-24T05:09:31;18.00;;;8.30;;
67965;SDS011;54749;47.850;9.002;2023-04-24T05:12:02;21.90;;;10.27;;
67965;SDS011;54749;47.850;9.002;2023-04-24T05:14:33;36.83;;;22.25;;
67965;SDS011;54749;47.850;9.002;2023-04-24T05:17:00;26.20;;;15.77;;
67965;SDS011;54749;47.850;9.002;2023-04-24T05:19:29;9.45;;;4.35;;
67965;SDS011;54749;47.850;9.002;2023-04-24T05:21:59;31.47;;;16.87;;
67965;SDS011;54749;47.850;9.002;2023-04-24T05:24:32;17.88;;;10.10;;
67965;SDS011;54749;47.850;9.002;2023-04-24T05:27:12;29.40;;;16.90;;
67965;SDS011;54749;47.850;9.002;2023-04-24T05:29:40;37.72;;;21.48;;
67965;SDS011;54749;47.850;9.002;2023-04-24T05:32:08;19.50;;;9.32;;
67965;SDS011;54749;47.850;9.002;2023-04-24T05:34:35;15.10;;;6.80;;
67965;SDS011;54749;47.850;9.002;2023-04-24T05:37:03;13.60;;;5.45;;
67965;SDS011;54749;47.850;9.002;2023-04-24T05:39:35;8.02;;;3.55;;
67965;SDS011;54749;47.850;9.002;2023-04-24T05:42:03;12.85;;;4.97;;
67965;SDS011;54749;47.850;9.002;2023-04-24T05:44:31;9.35;;;3.72;;
67965;SDS011;54749;47.850;9.002;2023-04-24T05:46:58;7.67;;;3.33;;
67965;SDS011;54749;47.850;9.002;2023-04-24T05:49:26;11.38;;;3.75;;
67965;SDS011;54749;47.850;9.002;2023-04-24T05:51:53;8.85;;;3.20;;
67965;SDS011;54749;47.850;9.002;2023-04-24T05:54:21;5.32;;;2.35;;
67965;SDS011;54749;47.850;9.002;2023-04-24T05:56:48;5.45;;;2.10;;
67965;SDS011;54749;47.850;9.002;2023-04-24T05:59:25;9.20;;;4.73;;
67965;SDS011;54749;47.850;9.002;2023-04-24T06:01:53;7.60;;;2.83;;
67965;SDS011;54749;47.850;9.002;2023-04-24T06:04:21;13.82;;;4.40;;
67965;SDS011;54749;47.850;9.002;2023-04-24T06:06:50;6.68;;;2.20;;
67965;SDS011;54749;47.850;9.002;2023-04-24T06:09:23;5.68;;;1.40;;
67965;SDS011;54749;47.850;9.002;2023-04-24T06:11:50;7.93;;;1.87;;
67965;SDS011;54749;47.850;9.002;2023-04-24T06:14:22;7.55;;;1.80;;
67965;SDS011;54749;47.850;9.002;2023-04-24T06:17:14;7.13;;;2.17;;
67965;SDS011;54749;47.850;9.002;2023-04-24T06:19:42;5.30;;;1.50;;
67965;SDS011;54749;47.850;9.002;2023-04-24T06:22:09;5.32;;;1.20;;
67965;SDS011;54749;47.850;9.002;2023-04-24T06:24:37;5.40;;;1.50;;
67965;SDS011;54749;47.850;9.002;2023-04-24T06:27:04;7.32;;;2.03;;
67965;SDS011;54749;47.850;9.002;2023-04-24T06:29:33;7.40;;;1.20;;
67965;SDS011;54749;47.850;9.002;2023-04-24T06:32:00;3.63;;;1.00;;
67965;SDS011;54749;47.850;9.002;2023-04-24T06:34:27;4.93;;;1.45;;
67965;SDS011;54749;47.850;9.002;2023-04-24T06:36:55;3.73;;;1.43;;
67965;SDS011;54749;47.850;9.002;2023-04-24T06:39:22;6.88;;;2.33;;
67965;SDS011;54749;47.850;9.002;2023-04-24T06:41:49;6.03;;;1.80;;
67965;SDS011;54749;47.850;9.002;2023-04-24T06:44:19;5.38;;;2.08;;
67965;SDS011;54749;47.850;9.002;2023-04-24T06:46:47;5.60;;;2.25;;
67965;SDS011;54749;47.850;9.002;2023-04-24T06:49:14;5.23;;;2.00;;
67965;SDS011;54749;47.850;9.002;2023-04-24T06:51:42;6.85;;;2.40;;
67965;SDS011;54749;47.850;9.002;2023-04-24T06:54:10;6.35;;;2.20;;
67965;SDS011;54749;47.850;9.002;2023-04-24T06:56:37;7.07;;;1.95;;
67965;SDS011;54749;47.850;9.002;2023-04-24T06:59:04;6.30;;;1.90;;
67965;SDS011;54749;47.850;9.002;2023-04-24T07:01:31;5.13;;;1.80;;
67965;SDS011;54749;47.850;9.002;2023-04-24T07:03:58;4.55;;;1.70;;
67965;SDS011;54749;47.850;9.002;2023-04-24T07:06:26;4.10;;;1.50;;
67965;SDS011;54749;47.850;9.002;2023-04-24T07:08:54;3.95;;;1.40;;
67965;SDS011;54749;47.850;9.002;2023-04-24T07:11:23;6.00;;;2.45;;
67965;SDS011;54749;47.850;9.002;2023-04-24T07:13:50;6.03;;;1.90;;
67965;SDS011;54749;47.850;9.002;2023-04-24T07:16:17;4.63;;;1.73;;
67965;SDS011;54749;47.850;9.002;2023-04-24T07:18:45;5.38;;;1.80;;
67965;SDS011;54749;47.850;9.002;2023-04-24T07:21:12;3.78;;;1.55;;
67965;SDS011;54749;47.850;9.002;2023-04-24T07:23:39;3.75;;;1.20;;
67965;SDS011;54749;47.850;9.002;2023-04-24T07:26:07;5.10;;;1.30;;
67965;SDS011;54749;47.850;9.002;2023-04-24T07:28:35;3.70;;;1.20;;
67965;SDS011;54749;47.850;9.002;2023-04-24T07:31:02;3.30;;;1.20;;
67965;SDS011;54749;47.850;9.002;2023-04-24T07:33:29;3.10;;;1.10;;
67965;SDS011;54749;47.850;9.002;2023-04-24T07:35:57;3.42;;;1.15;;
67965;SDS011;54749;47.850;9.002;2023-04-24T07:38:24;3.30;;;0.90;;
67965;SDS011;54749;47.850;9.002;2023-04-24T07:40:52;5.30;;;1.10;;
67965;SDS011;54749;47.850;9.002;2023-04-24T07:43:20;4.03;;;1.25;;
67965;SDS011;54749;47.850;9.002;2023-04-24T07:45:47;3.50;;;1.20;;
67965;SDS011;54749;47.850;9.002;2023-04-24T07:48:15;3.85;;;1.27;;
67965;SDS011;54749;47.850;9.002;2023-04-24T07:50:43;4.70;;;1.20;;
67965;SDS011;54749;47.850;9.002;2023-04-24T07:53:11;4.03;;;1.90;;
67965;SDS011;54749;47.850;9.002;2023-04-24T07:55:38;4.00;;;1.25;;
67965;SDS011;54749;47.850;9.002;2023-04-24T07:58:05;4.50;;;1.50;;
67965;SDS011;54749;47.850;9.002;2023-04-24T08:00:32;4.05;;;1.50;;
67965;SDS011;54749;47.850;9.002;2023-04-24T08:03:00;5.77;;;1.70;;
67965;SDS011;54749;47.850;9.002;2023-04-24T08:05:27;4.20;;;1.50;;
67965;SDS011;54749;47.850;9.002;2023-04-24T08:07:55;5.18;;;1.30;;
67965;SDS011;54749;47.850;9.002;2023-04-24T08:10:23;4.72;;;1.40;;
67965;SDS011;54749;47.850;9.002;2023-04-24T08:12:50;5.05;;;1.50;;
67965;SDS011;54749;47.850;9.002;2023-04-24T08:15:17;3.33;;;1.30;;
67965;SDS011;54749;47.850;9.002;2023-04-24T08:17:45;7.72;;;1.67;;
67965;SDS011;54749;47.850;9.002;2023-04-24T08:20:12;3.72;;;1.40;;
67965;SDS011;54749;47.850;9.002;2023-04-24T08:22:43;4.13;;;1.30;;
67965;SDS011;54749;47.850;9.002;2023-04-24T08:25:10;8.15;;;2.05;;
67965;SDS011;54749;47.850;9.002;2023-04-24T08:27:37;6.40;;;2.10;;
67965;SDS011;54749;47.850;9.002;2023-04-24T08:30:06;6.88;;;2.00;;
67965;SDS011;54749;47.850;9.002;2023-04-24T08:32:34;7.47;;;2.90;;
67965;SDS011;54749;47.850;9.002;2023-04-24T08:35:01;8.52;;;2.50;;
67965;SDS011;54749;47.850;9.002;2023-04-24T08:37:28;7.45;;;2.50;;
67965;SDS011;54749;47.850;9.002;2023-04-24T08:39:55;4.87;;;1.77;;
67965;SDS011;54749;47.850;9.002;2023-04-24T08:42:23;6.97;;;1.52;;
67965;SDS011;54749;47.850;9.002;2023-04-24T08:44:51;4.53;;;1.42;;
67965;SDS011;54749;47.850;9.002;2023-04-24T08:47:18;4.07;;;1.50;;
67965;SDS011;54749;47.850;9.002;2023-04-24T08:49:47;3.10;;;1.05;;
67965;SDS011;54749;47.850;9.002;2023-04-24T08:52:15;5.07;;;1.20;;
67965;SDS011;54749;47.850;9.002;2023-04-24T08:54:42;6.85;;;1.35;;
67965;SDS011;54749;47.850;9.002;2023-04-24T08:57:12;3.13;;;1.20;;
67965;SDS011;54749;47.850;9.002;2023-04-24T08:59:41;3.28;;;1.20;;
67965;SDS011;54749;47.850;9.002;2023-04-24T09:02:10;3.58;;;1.17;;
67965;SDS011;54749;47.850;9.002;2023-04-24T09:04:38;3.80;;;1.20;;
67965;SDS011;54749;47.850;9.002;2023-04-24T09:07:08;3.50;;;1.02;;
67965;SDS011;54749;47.850;9.002;2023-04-24T09:09:37;2.95;;;1.20;;
67965;SDS011;54749;47.850;9.002;2023-04-24T09:12:05;3.80;;;1.20;;
67965;SDS011;54749;47.850;9.002;2023-04-24T09:14:32;4.00;;;1.20;;
67965;SDS011;54749;47.850;9.002;2023-04-24T09:17:00;3.53;;;1.30;;
67965;SDS011;54749;47.850;9.002;2023-04-24T09:19:27;4.65;;;1.20;;
67965;SDS011;54749;47.850;9.002;2023-04-24T09:21:54;4.22;;;1.40;;
67965;SDS011;54749;47.850;9.002;2023-04-24T09:24:21;4.85;;;1.27;;
67965;SDS011;54749;47.850;9.002;2023-04-24T09:26:55;4.00;;;1.40;;
67965;SDS011;54749;47.850;9.002;2023-04-24T09:29:25;3.10;;;1.20;;
67965;SDS011;54749;47.850;9.002;2023-04-24T09:31:52;3.13;;;1.10;;
67965;SDS011;54749;47.850;9.002;2023-04-24T09:34:23;6.53;;;1.40;;
67965;SDS011;54749;47.850;9.002;2023-04-24T09:36:53;3.53;;;1.20;;
67965;SDS011;54749;47.850;9.002;2023-04-24T09:39:21;4.65;;;1.60;;
67965;SDS011;54749;47.850;9.002;2023-04-24T09:41:52;4.47;;;1.20;;
67965;SDS011;54749;47.850;9.002;2023-04-24T09:44:21;4.60;;;1.30;;
67965;SDS011;54749;47.850;9.002;2023-04-24T09:46:59;3.47;;;1.27;;
67965;SDS011;54749;47.850;9.002;2023-04-24T09:49:27;4.63;;;1.20;;
67965;SDS011;54749;47.850;9.002;2023-04-24T09:52:05;4.90;;;1.30;;
67965;SDS011;54749;47.850;9.002;2023-04-24T09:54:34;3.65;;;1.35;;
67965;SDS011;54749;47.850;9.002;2023-04-24T09:57:04;4.23;;;1.40;;
67965;SDS011;54749;47.850;9.002;2023-04-24T09:59:31;4.95;;;1.50;;
67965;SDS011;54749;47.850;9.002;2023-04-24T10:02:00;4.70;;;1.40;;
67965;SDS011;54749;47.850;9.002;2023-04-24T10:04:28;4.13;;;1.40;;
67965;SDS011;54749;47.850;9.002;2023-04-24T10:06:56;5.03;;;1.30;;
67965;SDS011;54749;47.850;9.002;2023-04-24T10:09:25;3.80;;;1.27;;
67965;SDS011;54749;47.850;9.002;2023-04-24T10:11:53;4.82;;;1.30;;
67965;SDS011;54749;47.850;9.002;2023-04-24T10:14:22;4.50;;;1.30;;
67965;SDS011;54749;47.850;9.002;2023-04-24T10:16:52;5.10;;;1.50;;
67965;SDS011;54749;47.850;9.002;2023-04-24T10:19:21;7.78;;;1.63;;
67965;SDS011;54749;47.850;9.002;2023-04-24T10:21:52;4.53;;;1.40;;
67965;SDS011;54749;47.850;9.002;2023-04-24T10:24:21;3.67;;;1.10;;
67965;SDS011;54749;47.850;9.002;2023-04-24T10:26:48;3.72;;;1.30;;
67965;SDS011;54749;47.850;9.002;2023-04-24T10:29:17;3.13;;;1.10;;
67965;SDS011;54749;47.850;9.002;2023-04-24T10:31:45;3.70;;;1.30;;
67965;SDS011;54749;47.850;9.002;2023-04-24T10:34:14;5.83;;;1.30;;
67965;SDS011;54749;47.850;9.002;2023-04-24T10:36:45;8.75;;;1.50;;
67965;SDS011;54749;47.850;9.002;2023-04-24T10:39:16;5.15;;;1.40;;
67965;SDS011;54749;47.850;9.002;2023-04-24T10:41:43;4.38;;;1.20;;
67965;SDS011;54749;47.850;9.002;2023-04-24T10:44:12;3.28;;;1.23;;
67965;SDS011;54749;47.850;9.002;2023-04-24T10:46:46;3.87;;;1.20;;
67965;SDS011;54749;47.850;9.002;2023-04-24T10:49:28;5.75;;;1.33;;
67965;SDS011;54749;47.850;9.002;2023-04-24T10:52:00;3.70;;;1.33;;
67965;SDS011;54749;47.850;9.002;2023-04-24T10:59:50;3.50;;;1.20;;
67965;SDS011;54749;47.850;9.002;2023-04-24T11:02:20;5.47;;;1.38;;
67965;SDS011;54749;47.850;9.002;2023-04-24T11:05:03;5.40;;;1.40;;
67965;SDS011;54749;47.850;9.002;2023-04-24T11:08:09;4.93;;;1.35;;
67965;SDS011;54749;47.850;9.002;2023-04-24T11:10:44;4.85;;;1.60;;
67965;SDS011;54749;47.850;9.002;2023-04-24T11:13:16;6.63;;;1.60;;
67965;SDS011;54749;47.850;9.002;2023-04-24T11:15:44;5.07;;;1.50;;
67965;SDS011;54749;47.850;9.002;2023-04-24T11:18:14;5.35;;;1.30;;
67965;SDS011;54749;47.850;9.002;2023-04-24T11:20:43;5.43;;;1.50;;
67965;SDS011;54749;47.850;9.002;2023-04-24T11:23:12;3.35;;;1.10;;
67965;SDS011;54749;47.850;9.002;2023-04-24T11:25:40;7.13;;;1.50;;
67965;SDS011;54749;47.850;9.002;2023-04-24T11:28:08;5.85;;;1.35;;
67965;SDS011;54749;47.850;9.002;2023-04-24T11:30:43;4.93;;;1.50;;
67965;SDS011;54749;47.850;9.002;2023-04-24T11:33:10;5.20;;;1.40;;
67965;SDS011;54749;47.850;9.002;2023-04-24T11:35:39;4.85;;;1.15;;
67965;SDS011;54749;47.850;9.002;2023-04-24T11:38:07;6.10;;;1.67;;
67965;SDS011;54749;47.850;9.002;2023-04-24T11:40:51;4.38;;;1.60;;
67965;SDS011;54749;47.850;9.002;2023-04-24T11:43:18;6.78;;;1.80;;
67965;SDS011;54749;47.850;9.002;2023-04-24T11:45:49;6.97;;;1.98;;
67965;SDS011;54749;47.850;9.002;2023-04-24T11:48:20;8.90;;;1.77;;
67965;SDS011;54749;47.850;9.002;2023-04-24T11:50:50;7.47;;;2.17;;
67965;SDS011;54749;47.850;9.002;2023-04-24T11:53:20;8.57;;;2.33;;
67965;SDS011;54749;47.850;9.002;2023-04-24T11:55:48;6.20;;;1.48;;
67965;SDS011;54749;47.850;9.002;2023-04-24T11:58:16;4.05;;;1.23;;
67965;SDS011;54749;47.850;9.002;2023-04-24T12:00:55;5.28;;;1.50;;
67965;SDS011;54749;47.850;9.002;2023-04-24T12:03:23;4.23;;;1.30;;
67965;SDS011;54749;47.850;9.002;2023-04-24T12:05:50;4.00;;;1.40;;
67965;SDS011;54749;47.850;9.002;2023-04-24T12:08:27;3.92;;;1.50;;
67965;SDS011;54749;47.850;9.002;2023-04-24T12:10:56;5.60;;;1.38;;
67965;SDS011;54749;47.850;9.002;2023-04-24T12:13:25;3.83;;;1.38;;
67965;SDS011;54749;47.850;9.002;2023-04-24T12:15:52;4.17;;;1.20;;
67965;SDS011;54749;47.850;9.002;2023-04-24T12:18:23;4.15;;;1.30;;
67965;SDS011;54749;47.850;9.002;2023-04-24T12:20:50;3.78;;;1.40;;
67965;SDS011;54749;47.850;9.002;2023-04-24T12:23:36;3.90;;;1.30;;
67965;SDS011;54749;47.850;9.002;2023-04-24T12:26:03;3.72;;;1.50;;
67965;SDS011;54749;47.850;9.002;2023-04-24T12:28:35;4.97;;;1.30;;
67965;SDS011;54749;47.850;9.002;2023-04-24T12:31:03;4.35;;;1.67;;
67965;SDS011;54749;47.850;9.002;2023-04-24T12:33:33;6.70;;;2.10;;
67965;SDS011;54749;47.850;9.002;2023-04-24T12:36:01;5.68;;;2.03;;
67965;SDS011;54749;47.850;9.002;2023-04-24T12:38:28;23.30;;;12.48;;
67965;SDS011;54749;47.850;9.002;2023-04-24T12:41:08;32.53;;;12.30;;
67965;SDS011;54749;47.850;9.002;2023-04-24T12:43:36;7.55;;;4.03;;
67965;SDS011;54749;47.850;9.002;2023-04-24T12:46:04;4.63;;;1.75;;
67965;SDS011;54749;47.850;9.002;2023-04-24T12:48:32;3.80;;;1.48;;
67965;SDS011;54749;47.850;9.002;2023-04-24T12:50:59;7.05;;;1.77;;
67965;SDS011;54749;47.850;9.002;2023-04-24T12:53:29;6.07;;;2.60;;
67965;SDS011;54749;47.850;9.002;2023-04-24T12:55:58;5.45;;;1.90;;
67965;SDS011;54749;47.850;9.002;2023-04-24T12:58:25;5.40;;;1.77;;
67965;SDS011;54749;47.850;9.002;2023-04-24T13:00:52;4.90;;;1.40;;
67965;SDS011;54749;47.850;9.002;2023-04-24T13:03:19;4.53;;;1.35;;
67965;SDS011;54749;47.850;9.002;2023-04-24T13:05:47;5.97;;;1.43;;
67965;SDS011;54749;47.850;9.002;2023-04-24T13:08:14;4.55;;;1.15;;
67965;SDS011;54749;47.850;9.002;2023-04-24T13:10:41;5.32;;;1.40;;
67965;SDS011;54749;47.850;9.002;2023-04-24T13:13:09;4.20;;;1.60;;
67965;SDS011;54749;47.850;9.002;2023-04-24T13:15:36;4.18;;;1.52;;
67965;SDS011;54749;47.850;9.002;2023-04-24T13:18:03;4.47;;;1.50;;
67965;SDS011;54749;47.850;9.002;2023-04-24T13:20:31;4.97;;;1.60;;
67965;SDS011;54749;47.850;9.002;2023-04-24T13:22:58;4.10;;;1.50;;
67965;SDS011;54749;47.850;9.002;2023-04-24T13:25:26;4.47;;;1.35;;
67965;SDS011;54749;47.850;9.002;2023-04-24T13:27:54;4.55;;;1.40;;
67965;SDS011;54749;47.850;9.002;2023-04-24T13:30:22;4.67;;;1.40;;
67965;SDS011;54749;47.850;9.002;2023-04-24T13:32:49;7.20;;;1.40;;
67965;SDS011;54749;47.850;9.002;2023-04-24T13:35:16;4.13;;;1.50;;
67965;SDS011;54749;47.850;9.002;2023-04-24T13:37:43;4.53;;;1.40;;
67965;SDS011;54749;47.850;9.002;2023-04-24T13:40:10;4.18;;;1.42;;
67965;SDS011;54749;47.850;9.002;2023-04-24T13:42:38;5.07;;;1.80;;
67965;SDS011;54749;47.850;9.002;2023-04-24T13:45:05;3.45;;;1.30;;
67965;SDS011;54749;47.850;9.002;2023-04-24T13:47:50;4.07;;;1.48;;
67965;SDS011;54749;47.850;9.002;2023-04-24T13:50:19;4.93;;;1.30;;
67965;SDS011;54749;47.850;9.002;2023-04-24T13:52:46;4.88;;;1.40;;
67965;SDS011;54749;47.850;9.002;2023-04-24T13:55:14;5.50;;;1.37;;
67965;SDS011;54749;47.850;9.002;2023-04-24T13:57:41;4.47;;;1.40;;
67965;SDS011;54749;47.850;9.002;2023-04-24T14:00:09;3.65;;;1.30;;
67965;SDS011;54749;47.850;9.002;2023-04-24T14:02:37;3.25;;;1.20;;
67965;SDS011;54749;47.850;9.002;2023-04-24T14:05:05;3.67;;;1.30;;
67965;SDS011;54749;47.850;9.002;2023-04-24T14:07:33;3.73;;;1.30;;
67965;SDS011;54749;47.850;9.002;2023-04-24T14:10:00;3.40;;;1.20;;
67965;SDS011;54749;47.850;9.002;2023-04-24T14:12:27;4.35;;;1.30;;
67965;SDS011;54749;47.850;9.002;2023-04-24T14:14:54;3.95;;;1.40;;
67965;SDS011;54749;47.850;9.002;2023-04-24T14:17:21;4.10;;;1.50;;
67965;SDS011;54749;47.850;9.002;2023-04-24T14:19:49;3.63;;;1.47;;
67965;SDS011;54749;47.850;9.002;2023-04-24T14:22:18;4.03;;;1.58;;
67965;SDS011;54749;47.850;9.002;2023-04-24T14:24:45;3.70;;;1.40;;
67965;SDS011;54749;47.850;9.002;2023-04-24T14:27:12;4.90;;;1.48;;
67965;SDS011;54749;47.850;9.002;2023-04-24T14:29:42;4.95;;;1.50;;
67965;SDS011;54749;47.850;9.002;2023-04-24T14:32:10;4.43;;;1.50;;
67965;SDS011;54749;47.850;9.002;2023-04-24T14:34:38;3.30;;;1.30;;
67965;SDS011;54749;47.850;9.002;2023-04-24T14:37:05;5.03;;;1.50;;
67965;SDS011;54749;47.850;9.002;2023-04-24T14:39:32;3.85;;;1.33;;
67965;SDS011;54749;47.850;9.002;2023-04-24T14:41:59;3.35;;;1.30;;
67965;SDS011;54749;47.850;9.002;2023-04-24T14:44:28;3.37;;;1.30;;
67965;SDS011;54749;47.850;9.002;2023-04-24T14:46:55;3.72;;;1.50;;
67965;SDS011;54749;47.850;9.002;2023-04-24T14:49:23;4.32;;;1.60;;
67965;SDS011;54749;47.850;9.002;2023-04-24T14:51:50;3.45;;;1.30;;
67965;SDS011;54749;47.850;9.002;2023-04-24T14:54:17;5.18;;;1.45;;
67965;SDS011;54749;47.850;9.002;2023-04-24T14:56:44;4.47;;;1.20;;
67965;SDS011;54749;47.850;9.002;2023-04-24T14:59:11;5.15;;;1.45;;